sensor_id;sensor_type;location;lat;lon;timestamp;pressure;altitude;pressure_sealevel;temperature;humidity
77263;BME280;66373;52.334;4.806;2023-02-28T00:01:51;103029.69;;;16.49;45.90
77263;BME280;66373;52.334;4.806;2023-02-28T00:04:29;103090.19;;;16.83;45.76
77263;BME280;66373;52.334;4.806;2023-02-28T00:06:59;103093.63;;;16.82;46.06
77263;BME280;66373;52.334;4.806;2023-02-28T00:09:29;103010.41;;;16.37;45.94
77263;BME280;66373;52.334;4.806;2023-02-28T00:11:59;103043.66;;;16.54;46.08
77263;BME280;66373;52.334;4.806;2023-02-28T00:14:37;103050.59;;;16.55;46.06
77263;BME280;66373;52.334;4.806;2023-02-28T00:17:05;102973.56;;;16.14;46.01
77263;BME280;66373;52.334;4.806;2023-02-28T00:19:34;103007.78;;;16.35;45.88
77263;BME280;66373;52.334;4.806;2023-02-28T00:22:04;102991.19;;;16.28;45.95
77263;BME280;66373;52.334;4.806;2023-02-28T00:24:31;103020.88;;;16.41;45.81
77263;BME280;66373;52.334;4.806;2023-02-28T00:27:03;103152.31;;;17.16;45.72
77263;BME280;66373;52.334;4.806;2023-02-28T00:29:36;102991.25;;;16.32;46.06
77263;BME280;66373;52.334;4.806;2023-02-28T00:32:34;103049.91;;;16.62;45.78
77263;BME280;66373;52.334;4.806;2023-02-28T00:42:35;103086.88;;;16.93;45.41
77263;BME280;66373;52.334;4.806;2023-02-28T00:47:25;103145.72;;;17.32;45.63
77263;BME280;66373;52.334;4.806;2023-02-28T00:49:12;103059.75;;;16.79;45.54
77263;BME280;66373;52.334;4.806;2023-02-28T00:52:07;102974.88;;;16.37;45.63
77263;BME280;66373;52.334;4.806;2023-02-28T00:54:38;103021.41;;;16.67;45.31
77263;BME280;66373;52.334;4.806;2023-02-28T00:57:07;103076.78;;;17.08;45.47
77263;BME280;66373;52.334;4.806;2023-02-28T00:59:53;103071.53;;;17.05;45.49
77263;BME280;66373;52.334;4.806;2023-02-28T01:02:54;103102.19;;;17.23;45.06
77263;BME280;66373;52.334;4.806;2023-02-28T01:05:27;103012.19;;;16.83;45.23
77263;BME280;66373;52.334;4.806;2023-02-28T01:08:17;102979.75;;;16.62;45.00
77263;BME280;66373;52.334;4.806;2023-02-28T01:10:55;103068.22;;;17.15;45.34
77263;BME280;66373;52.334;4.806;2023-02-28T01:13:38;103075.25;;;17.19;44.85
77263;BME280;66373;52.334;4.806;2023-02-28T01:16:13;102992.16;;;16.77;44.92
77263;BME280;66373;52.334;4.806;2023-02-28T01:19:03;103048.31;;;17.17;44.91
77263;BME280;66373;52.334;4.806;2023-02-28T01:21:43;103140.38;;;17.72;44.88
77263;BME280;66373;52.334;4.806;2023-02-28T01:35:25;103090.00;;;17.70;44.68
77263;BME280;66373;52.334;4.806;2023-02-28T01:38:45;102990.25;;;17.18;44.52
77263;BME280;66373;52.334;4.806;2023-02-28T01:41:57;102959.59;;;16.99;45.02
77263;BME280;66373;52.334;4.806;2023-02-28T01:45:00;103114.72;;;17.96;44.81
77263;BME280;66373;52.334;4.806;2023-02-28T01:48:10;102987.78;;;17.26;44.55
77263;BME280;66373;52.334;4.806;2023-02-28T01:51:00;103072.78;;;17.78;44.67
77263;BME280;66373;52.334;4.806;2023-02-28T01:53:39;102977.38;;;17.24;44.96
77263;BME280;66373;52.334;4.806;2023-02-28T01:56:22;103034.34;;;17.62;44.49
77263;BME280;66373;52.334;4.806;2023-02-28T01:58:56;103102.66;;;18.02;44.81
77263;BME280;66373;52.334;4.806;2023-02-28T02:01:27;103063.31;;;17.82;44.60
77263;BME280;66373;52.334;4.806;2023-02-28T02:04:02;103113.25;;;18.14;44.54
77263;BME280;66373;52.334;4.806;2023-02-28T02:06:38;102956.53;;;17.23;44.64
77263;BME280;66373;52.334;4.806;2023-02-28T02:09:27;103035.31;;;17.66;44.67
77263;BME280;66373;52.334;4.806;2023-02-28T02:12:13;103065.94;;;17.83;44.71
77263;BME280;66373;52.334;4.806;2023-02-28T02:14:59;103072.16;;;17.94;44.44
77263;BME280;66373;52.334;4.806;2023-02-28T02:17:41;102944.53;;;17.31;44.80
77263;BME280;66373;52.334;4.806;2023-02-28T02:27:07;102945.44;;;17.33;44.63
77263;BME280;66373;52.334;4.806;2023-02-28T02:30:01;102948.13;;;17.39;44.64
77263;BME280;66373;52.334;4.806;2023-02-28T02:36:42;102970.09;;;17.58;44.70
77263;BME280;66373;52.334;4.806;2023-02-28T02:39:42;102956.03;;;17.47;44.76
77263;BME280;66373;52.334;4.806;2023-02-28T02:42:44;102939.34;;;17.33;44.77
77263;BME280;66373;52.334;4.806;2023-02-28T02:45:52;103089.03;;;18.18;44.52
77263;BME280;66373;52.334;4.806;2023-02-28T02:48:51;103095.94;;;18.16;45.11
77263;BME280;66373;52.334;4.806;2023-02-28T02:51:46;103091.56;;;18.15;44.60
77263;BME280;66373;52.334;4.806;2023-02-28T02:54:58;102937.44;;;17.22;44.89
77263;BME280;66373;52.334;4.806;2023-02-28T02:57:43;102971.50;;;17.36;44.70
77263;BME280;66373;52.334;4.806;2023-02-28T03:00:43;102931.22;;;17.11;45.17
77263;BME280;66373;52.334;4.806;2023-02-28T03:03:29;102916.31;;;17.01;45.13
77263;BME280;66373;52.334;4.806;2023-02-28T03:06:02;103032.69;;;17.67;45.16
77263;BME280;66373;52.334;4.806;2023-02-28T03:08:53;102951.25;;;17.18;44.79
77263;BME280;66373;52.334;4.806;2023-02-28T03:11:41;103107.00;;;18.01;45.07
77263;BME280;66373;52.334;4.806;2023-02-28T03:14:37;103021.22;;;17.56;45.26
77263;BME280;66373;52.334;4.806;2023-02-28T03:17:29;103025.63;;;17.58;44.96
77263;BME280;66373;52.334;4.806;2023-02-28T03:20:09;102976.50;;;17.25;44.90
77263;BME280;66373;52.334;4.806;2023-02-28T03:26:04;103057.97;;;17.74;44.75
77263;BME280;66373;52.334;4.806;2023-02-28T03:28:55;102958.28;;;17.24;44.97
77263;BME280;66373;52.334;4.806;2023-02-28T03:31:38;103030.03;;;17.62;45.15
77263;BME280;66373;52.334;4.806;2023-02-28T03:34:23;103011.56;;;17.49;45.24
77263;BME280;66373;52.334;4.806;2023-02-28T03:36:57;102989.72;;;17.36;44.96
77263;BME280;66373;52.334;4.806;2023-02-28T03:39:34;102995.84;;;17.40;44.96
77263;BME280;66373;52.334;4.806;2023-02-28T03:42:09;102972.09;;;17.21;44.91
77263;BME280;66373;52.334;4.806;2023-02-28T03:44:40;103049.91;;;17.59;44.84
77263;BME280;66373;52.334;4.806;2023-02-28T03:47:23;103088.50;;;17.84;45.00
77263;BME280;66373;52.334;4.806;2023-02-28T03:50:06;103035.09;;;17.55;44.97
77263;BME280;66373;52.334;4.806;2023-02-28T03:53:00;102971.97;;;17.11;45.06
77263;BME280;66373;52.334;4.806;2023-02-28T03:55:43;102968.50;;;17.12;45.12
77263;BME280;66373;52.334;4.806;2023-02-28T03:58:24;102986.75;;;17.16;45.20
77263;BME280;66373;52.334;4.806;2023-02-28T04:01:18;103049.91;;;17.59;45.01
77263;BME280;66373;52.334;4.806;2023-02-28T04:03:54;103065.56;;;17.62;45.13
77263;BME280;66373;52.334;4.806;2023-02-28T04:06:31;102999.94;;;17.25;44.90
77263;BME280;66373;52.334;4.806;2023-02-28T04:09:00;103085.81;;;17.78;45.13
77263;BME280;66373;52.334;4.806;2023-02-28T04:11:37;103056.84;;;17.58;45.15
77263;BME280;66373;52.334;4.806;2023-02-28T04:14:12;102951.72;;;16.94;45.26
77263;BME280;66373;52.334;4.806;2023-02-28T04:16:57;102932.53;;;16.85;45.24
77263;BME280;66373;52.334;4.806;2023-02-28T04:19:29;103030.53;;;17.42;45.01
77263;BME280;66373;52.334;4.806;2023-02-28T04:22:05;103029.69;;;17.43;44.79
77263;BME280;66373;52.334;4.806;2023-02-28T04:25:05;103077.81;;;17.68;45.24
77263;BME280;66373;52.334;4.806;2023-02-28T04:27:42;103031.50;;;17.48;45.21
77263;BME280;66373;52.334;4.806;2023-02-28T04:30:35;102983.28;;;17.16;45.04
77263;BME280;66373;52.334;4.806;2023-02-28T04:33:09;103020.03;;;17.36;45.16
77263;BME280;66373;52.334;4.806;2023-02-28T04:35:36;102928.97;;;16.80;45.18
77263;BME280;66373;52.334;4.806;2023-02-28T04:38:10;102960.41;;;16.95;45.49
77263;BME280;66373;52.334;4.806;2023-02-28T04:41:06;103006.78;;;17.20;45.41
77263;BME280;66373;52.334;4.806;2023-02-28T04:44:19;102902.75;;;16.68;45.50
77263;BME280;66373;52.334;4.806;2023-02-28T04:48:00;102967.34;;;16.96;45.51
77263;BME280;66373;52.334;4.806;2023-02-28T04:51:36;102939.41;;;16.83;45.73
77263;BME280;66373;52.334;4.806;2023-02-28T04:58:18;103085.53;;;17.61;46.12
77263;BME280;66373;52.334;4.806;2023-02-28T05:08:48;103054.81;;;17.41;46.08
77263;BME280;66373;52.334;4.806;2023-02-28T05:15:12;102942.69;;;16.73;46.57
77263;BME280;66373;52.334;4.806;2023-02-28T06:41:20;103029.81;;;16.99;47.52
77263;BME280;66373;52.334;4.806;2023-02-28T06:43:51;103096.28;;;17.32;47.57
77263;BME280;66373;52.334;4.806;2023-02-28T06:46:20;102971.88;;;16.59;47.54
77263;BME280;66373;52.334;4.806;2023-02-28T06:48:47;103052.47;;;17.06;47.51
77263;BME280;66373;52.334;4.806;2023-02-28T06:51:19;102987.66;;;16.69;47.56
77263;BME280;66373;52.334;4.806;2023-02-28T06:53:50;102971.94;;;16.62;47.41
77263;BME280;66373;52.334;4.806;2023-02-28T06:56:19;103056.75;;;17.03;47.37
77263;BME280;66373;52.334;4.806;2023-02-28T06:58:47;103107.50;;;17.29;47.26
77263;BME280;66373;52.334;4.806;2023-02-28T07:01:15;103056.75;;;17.03;47.56
77263;BME280;66373;52.334;4.806;2023-02-28T07:03:42;103137.25;;;17.45;47.36
77263;BME280;66373;52.334;4.806;2023-02-28T07:06:10;103109.09;;;17.22;47.44
77263;BME280;66373;52.334;4.806;2023-02-28T07:08:38;103137.19;;;17.39;47.48
77263;BME280;66373;52.334;4.806;2023-02-28T07:11:06;103028.59;;;16.80;47.19
77263;BME280;66373;52.334;4.806;2023-02-28T07:13:35;103130.09;;;17.32;47.18
77263;BME280;66373;52.334;4.806;2023-02-28T07:16:06;103147.69;;;17.46;47.43
77263;BME280;66373;52.334;4.806;2023-02-28T07:18:35;103148.56;;;17.47;47.24
77263;BME280;66373;52.334;4.806;2023-02-28T07:21:03;103026.72;;;16.73;47.26
77263;BME280;66373;52.334;4.806;2023-02-28T07:23:31;103010.00;;;16.60;47.15
77263;BME280;66373;52.334;4.806;2023-02-28T07:25:58;103072.22;;;16.96;47.10
77263;BME280;66373;52.334;4.806;2023-02-28T07:28:25;103023.97;;;16.66;47.17
77263;BME280;66373;52.334;4.806;2023-02-28T07:30:54;103042.41;;;16.78;47.11
77263;BME280;66373;52.334;4.806;2023-02-28T07:33:23;103039.63;;;16.69;47.08
77263;BME280;66373;52.334;4.806;2023-02-28T07:36:00;103083.63;;;17.03;47.00
77263;BME280;66373;52.334;4.806;2023-02-28T07:38:30;103079.22;;;16.99;47.14
77263;BME280;66373;52.334;4.806;2023-02-28T07:41:04;103149.19;;;17.32;47.13
77263;BME280;66373;52.334;4.806;2023-02-28T07:43:33;103107.88;;;17.02;47.25
77263;BME280;66373;52.334;4.806;2023-02-28T07:46:04;103029.09;;;16.62;46.94
77263;BME280;66373;52.334;4.806;2023-02-28T07:48:32;103070.25;;;16.83;47.07
77263;BME280;66373;52.334;4.806;2023-02-28T07:51:03;103050.09;;;16.72;46.92
77263;BME280;66373;52.334;4.806;2023-02-28T07:53:31;103036.97;;;16.66;47.00
77263;BME280;66373;52.334;4.806;2023-02-28T07:56:01;103025.47;;;16.54;47.03
77263;BME280;66373;52.334;4.806;2023-02-28T07:58:35;103126.38;;;17.19;46.83
77263;BME280;66373;52.334;4.806;2023-02-28T08:01:21;103042.16;;;16.66;46.77
77263;BME280;66373;52.334;4.806;2023-02-28T08:04:00;103022.94;;;16.57;46.89
77263;BME280;66373;52.334;4.806;2023-02-28T08:06:29;103117.63;;;17.14;46.67
77263;BME280;66373;52.334;4.806;2023-02-28T08:13:18;103110.41;;;16.99;46.78
77263;BME280;66373;52.334;4.806;2023-02-28T08:19:52;103153.41;;;17.27;46.70
77263;BME280;66373;52.334;4.806;2023-02-28T08:23:25;103162.25;;;17.35;46.59
77263;BME280;66373;52.334;4.806;2023-02-28T08:26:54;103028.06;;;16.54;46.39
77263;BME280;66373;52.334;4.806;2023-02-28T08:30:10;103074.56;;;16.83;46.45
77263;BME280;66373;52.334;4.806;2023-02-28T08:32:39;103130.75;;;17.21;46.46
77263;BME280;66373;52.334;4.806;2023-02-28T08:35:10;103168.28;;;17.33;46.30
77263;BME280;66373;52.334;4.806;2023-02-28T08:37:40;103076.13;;;16.75;46.77
77263;BME280;66373;52.334;4.806;2023-02-28T08:40:09;103151.53;;;17.20;46.27
77263;BME280;66373;52.334;4.806;2023-02-28T08:42:39;103100.84;;;16.98;46.45
77263;BME280;66373;52.334;4.806;2023-02-28T08:45:08;103015.00;;;16.51;46.49
77263;BME280;66373;52.334;4.806;2023-02-28T08:47:38;103074.56;;;16.83;46.31
77263;BME280;66373;52.334;4.806;2023-02-28T08:50:10;103054.34;;;16.68;46.55
77263;BME280;66373;52.334;4.806;2023-02-28T08:52:42;103065.69;;;16.72;46.52
77263;BME280;66373;52.334;4.806;2023-02-28T08:55:13;103099.91;;;16.94;46.39
77263;BME280;66373;52.334;4.806;2023-02-28T08:57:43;103044.72;;;16.64;46.39
77263;BME280;66373;52.334;4.806;2023-02-28T09:00:14;103154.38;;;17.32;46.22
77263;BME280;66373;52.334;4.806;2023-02-28T09:02:42;103144.81;;;17.29;46.39
77263;BME280;66373;52.334;4.806;2023-02-28T09:05:14;102993.97;;;16.39;46.21
77263;BME280;66373;52.334;4.806;2023-02-28T09:07:41;103083.25;;;16.83;46.32
77263;BME280;66373;52.334;4.806;2023-02-28T09:13:50;103058.81;;;16.75;46.25
77263;BME280;66373;52.334;4.806;2023-02-28T09:20:40;103131.50;;;17.13;45.97
77263;BME280;66373;52.334;4.806;2023-02-28T09:29:16;103072.00;;;16.84;45.92
77263;BME280;66373;52.334;4.806;2023-02-28T09:31:04;103071.91;;;16.80;46.06
77263;BME280;66373;52.334;4.806;2023-02-28T09:33:32;103150.78;;;17.25;45.93
77263;BME280;66373;52.334;4.806;2023-02-28T09:36:03;103076.31;;;16.82;45.98
77263;BME280;66373;52.334;4.806;2023-02-28T09:38:34;103135.81;;;17.12;46.21
77263;BME280;66373;52.334;4.806;2023-02-28T09:41:15;103028.84;;;16.50;45.98
77263;BME280;66373;52.334;4.806;2023-02-28T09:43:50;103057.81;;;16.69;46.16
77263;BME280;66373;52.334;4.806;2023-02-28T09:46:35;103091.13;;;16.86;46.20
77263;BME280;66373;52.334;4.806;2023-02-28T09:49:14;103096.34;;;16.88;46.08
77263;BME280;66373;52.334;4.806;2023-02-28T09:51:51;103128.69;;;17.04;46.14
77263;BME280;66373;52.334;4.806;2023-02-28T09:54:29;103105.03;;;16.88;46.18
77263;BME280;66373;52.334;4.806;2023-02-28T09:57:09;103147.91;;;17.10;46.06
77263;BME280;66373;52.334;4.806;2023-02-28T10:00:08;103167.25;;;17.24;46.13
77263;BME280;66373;52.334;4.806;2023-02-28T10:03:30;103176.00;;;17.29;46.12
77263;BME280;66373;52.334;4.806;2023-02-28T10:06:32;103118.22;;;16.99;45.77
77263;BME280;66373;52.334;4.806;2023-02-28T10:09:26;103153.19;;;17.13;45.83
77263;BME280;66373;52.334;4.806;2023-02-28T10:12:41;103166.50;;;17.30;45.99
77263;BME280;66373;52.334;4.806;2023-02-28T10:15:23;103109.44;;;16.94;45.85
77263;BME280;66373;52.334;4.806;2023-02-28T10:18:08;103177.78;;;17.30;46.12
77263;BME280;66373;52.334;4.806;2023-02-28T10:21:05;103044.50;;;16.53;46.27
77263;BME280;66373;52.334;4.806;2023-02-28T10:47:49;103163.66;;;17.19;46.00
77263;BME280;66373;52.334;4.806;2023-02-28T10:50:35;103119.94;;;16.99;45.86
77263;BME280;66373;52.334;4.806;2023-02-28T10:53:39;103160.25;;;17.22;46.04
77263;BME280;66373;52.334;4.806;2023-02-28T10:56:16;103090.19;;;16.83;46.04
77263;BME280;66373;52.334;4.806;2023-02-28T10:58:54;103157.69;;;17.23;46.12
77263;BME280;66373;52.334;4.806;2023-02-28T11:01:24;103144.56;;;17.17;46.28
77263;BME280;66373;52.334;4.806;2023-02-28T11:03:53;103088.56;;;16.91;45.96
77263;BME280;66373;52.334;4.806;2023-02-28T11:06:22;103064.13;;;16.80;45.92
77263;BME280;66373;52.334;4.806;2023-02-28T11:08:54;103037.75;;;16.61;45.89
77263;BME280;66373;52.334;4.806;2023-02-28T11:11:24;103065.69;;;16.72;45.69
77263;BME280;66373;52.334;4.806;2023-02-28T11:14:03;103041.31;;;16.67;45.94
77263;BME280;66373;52.334;4.806;2023-02-28T11:16:37;103071.13;;;16.84;45.82
77263;BME280;66373;52.334;4.806;2023-02-28T11:19:28;103079.94;;;16.92;45.68
77263;BME280;66373;52.334;4.806;2023-02-28T11:22:00;103141.38;;;17.32;45.76
77263;BME280;66373;52.334;4.806;2023-02-28T11:24:33;103146.63;;;17.34;45.59
77263;BME280;66373;52.334;4.806;2023-02-28T11:27:04;103087.19;;;17.08;45.67
77263;BME280;66373;52.334;4.806;2023-02-28T11:29:33;103145.88;;;17.41;45.94
77263;BME280;66373;52.334;4.806;2023-02-28T11:32:03;103064.41;;;16.95;45.61
77263;BME280;66373;52.334;4.806;2023-02-28T11:34:33;103064.34;;;16.92;45.68
77263;BME280;66373;52.334;4.806;2023-02-28T11:37:02;103152.84;;;17.43;45.86
77263;BME280;66373;52.334;4.806;2023-02-28T11:39:32;103152.81;;;17.40;45.70
77263;BME280;66373;52.334;4.806;2023-02-28T11:42:18;103102.91;;;17.14;45.70
77263;BME280;66373;52.334;4.806;2023-02-28T11:44:57;103024.09;;;16.72;45.37
77263;BME280;66373;52.334;4.806;2023-02-28T11:47:33;102991.78;;;16.59;45.62
77263;BME280;66373;52.334;4.806;2023-02-28T11:50:38;103048.78;;;16.95;45.52
77263;BME280;66373;52.334;4.806;2023-02-28T11:53:17;103070.75;;;17.09;45.52
77263;BME280;66373;52.334;4.806;2023-02-28T11:55:49;103049.69;;;16.97;45.65
77263;BME280;66373;52.334;4.806;2023-02-28T11:58:31;102991.94;;;16.67;45.67
77263;BME280;66373;52.334;4.806;2023-02-28T12:01:13;103036.72;;;16.99;45.74
77263;BME280;66373;52.334;4.806;2023-02-28T12:03:57;103001.69;;;16.77;45.46
77263;BME280;66373;52.334;4.806;2023-02-28T12:06:33;103027.06;;;16.91;45.33
77263;BME280;66373;52.334;4.806;2023-02-28T12:09:13;102991.22;;;16.74;45.51
77263;BME280;66373;52.334;4.806;2023-02-28T12:11:51;102980.75;;;16.71;45.29
77263;BME280;66373;52.334;4.806;2023-02-28T12:14:39;103092.06;;;17.38;45.46
77263;BME280;66373;52.334;4.806;2023-02-28T12:17:15;103109.63;;;17.51;45.32
77263;BME280;66373;52.334;4.806;2023-02-28T12:19:48;103057.03;;;17.19;45.33
77263;BME280;66373;52.334;4.806;2023-02-28T12:22:31;102965.16;;;16.71;45.29
77263;BME280;66373;52.334;4.806;2023-02-28T12:25:30;103104.47;;;17.54;45.25
77263;BME280;66373;52.334;4.806;2023-02-28T12:28:07;102993.28;;;16.93;45.15
77263;BME280;66373;52.334;4.806;2023-02-28T12:30:58;102996.75;;;16.92;45.25
77263;BME280;66373;52.334;4.806;2023-02-28T12:33:32;103060.75;;;17.34;45.00
77263;BME280;66373;52.334;4.806;2023-02-28T12:36:07;103052.97;;;17.34;45.20
77263;BME280;66373;52.334;4.806;2023-02-28T12:38:49;102967.22;;;16.87;45.08
77263;BME280;66373;52.334;4.806;2023-02-28T12:41:20;103059.97;;;17.38;44.95
77263;BME280;66373;52.334;4.806;2023-02-28T12:43:55;103023.22;;;17.19;44.73
77263;BME280;66373;52.334;4.806;2023-02-28T12:46:25;103054.78;;;17.38;45.16
77263;BME280;66373;52.334;4.806;2023-02-28T12:48:57;102998.88;;;17.14;44.88
77263;BME280;66373;52.334;4.806;2023-02-28T12:51:27;103039.16;;;17.38;44.82
77263;BME280;66373;52.334;4.806;2023-02-28T12:54:07;103086.50;;;17.68;44.94
77263;BME280;66373;52.334;4.806;2023-02-28T12:56:42;103054.16;;;17.54;44.99
77263;BME280;66373;52.334;4.806;2023-02-28T12:59:17;102974.53;;;17.09;44.75
77263;BME280;66373;52.334;4.806;2023-02-28T13:02:00;102922.13;;;16.85;44.80
77263;BME280;66373;52.334;4.806;2023-02-28T13:04:44;102977.22;;;17.17;44.75
77263;BME280;66373;52.334;4.806;2023-02-28T13:07:41;102951.88;;;17.04;44.70
77263;BME280;66373;52.334;4.806;2023-02-28T13:10:15;102933.59;;;16.99;44.52
77263;BME280;66373;52.334;4.806;2023-02-28T13:12:49;103060.69;;;17.80;44.55
77263;BME280;66373;52.334;4.806;2023-02-28T13:15:19;102976.66;;;17.33;44.72
77263;BME280;66373;52.334;4.806;2023-02-28T13:17:51;103029.22;;;17.65;44.52
77263;BME280;66373;52.334;4.806;2023-02-28T13:20:21;103060.72;;;17.83;44.43
77263;BME280;66373;52.334;4.806;2023-02-28T13:22:51;103013.47;;;17.59;44.54
77263;BME280;66373;52.334;4.806;2023-02-28T13:25:54;103052.97;;;17.86;44.69
77263;BME280;66373;52.334;4.806;2023-02-28T13:31:23;102997.78;;;17.54;44.48
77263;BME280;66373;52.334;4.806;2023-02-28T13:34:14;102935.72;;;17.23;44.72
77263;BME280;66373;52.334;4.806;2023-02-28T13:36:51;102986.44;;;17.51;44.73
77263;BME280;66373;52.334;4.806;2023-02-28T13:39:46;102962.88;;;17.42;44.53
77263;BME280;66373;52.334;4.806;2023-02-28T13:42:34;103010.28;;;17.75;44.27
77263;BME280;66373;52.334;4.806;2023-02-28T13:45:25;103047.91;;;17.98;44.50
77263;BME280;66373;52.334;4.806;2023-02-28T13:47:57;103052.19;;;17.93;44.69
77263;BME280;66373;52.334;4.806;2023-02-28T13:50:32;102969.16;;;17.54;44.61
77263;BME280;66373;52.334;4.806;2023-02-28T13:56:23;102950.88;;;17.50;44.54
77263;BME280;66373;52.334;4.806;2023-02-28T13:58:59;103027.00;;;17.94;44.36
77263;BME280;66373;52.334;4.806;2023-02-28T14:01:50;102922.88;;;17.32;44.59
77263;BME280;66373;52.334;4.806;2023-02-28T14:04:40;102933.41;;;17.40;44.44
77263;BME280;66373;52.334;4.806;2023-02-28T14:07:18;102961.44;;;17.59;44.46
77263;BME280;66373;52.334;4.806;2023-02-28T14:09:56;102971.88;;;17.62;44.53
77263;BME280;66373;52.334;4.806;2023-02-28T14:12:55;103027.16;;;18.03;44.41
77263;BME280;66373;52.334;4.806;2023-02-28T14:15:44;102891.59;;;17.27;44.28
77263;BME280;66373;52.334;4.806;2023-02-28T14:18:25;102919.56;;;17.44;44.32
77263;BME280;66373;52.334;4.806;2023-02-28T14:20:57;103012.31;;;17.97;43.96
77263;BME280;66373;52.334;4.806;2023-02-28T14:23:39;102979.13;;;17.81;44.15
77263;BME280;66373;52.334;4.806;2023-02-28T14:26:19;102931.91;;;17.57;43.96
77263;BME280;66373;52.334;4.806;2023-02-28T14:29:11;103001.06;;;18.00;43.92
77263;BME280;66373;52.334;4.806;2023-02-28T14:31:52;103031.69;;;18.19;44.11
77263;BME280;66373;52.334;4.806;2023-02-28T14:34:34;102992.44;;;18.04;44.18
77263;BME280;66373;52.334;4.806;2023-02-28T14:37:03;102923.31;;;17.62;43.86
77263;BME280;66373;52.334;4.806;2023-02-28T14:39:33;102907.63;;;17.58;44.13
77263;BME280;66373;52.334;4.806;2023-02-28T14:42:02;102961.03;;;17.90;44.06
77263;BME280;66373;52.334;4.806;2023-02-28T14:44:31;102967.97;;;17.93;43.90
77263;BME280;66373;52.334;4.806;2023-02-28T14:47:15;102905.91;;;17.58;43.77
77263;BME280;66373;52.334;4.806;2023-02-28T14:49:44;102935.75;;;17.83;43.69
77263;BME280;66373;52.334;4.806;2023-02-28T14:52:15;103032.78;;;18.35;43.54
77263;BME280;66373;52.334;4.806;2023-02-28T14:54:51;103007.50;;;18.28;43.80
77263;BME280;66373;52.334;4.806;2023-02-28T14:57:24;103018.97;;;18.42;43.31
77263;BME280;66373;52.334;4.806;2023-02-28T15:00:03;102982.22;;;18.21;43.30
77263;BME280;66373;52.334;4.806;2023-02-28T15:02:38;102966.59;;;18.21;43.21
77263;BME280;66373;52.334;4.806;2023-02-28T15:05:24;102900.22;;;17.85;43.51
77263;BME280;66373;52.334;4.806;2023-02-28T15:08:02;102960.53;;;18.23;43.57
77263;BME280;66373;52.334;4.806;2023-02-28T15:10:31;102915.06;;;17.95;43.67
77263;BME280;66373;52.334;4.806;2023-02-28T15:13:02;103006.78;;;18.40;43.15
77263;BME280;66373;52.334;4.806;2023-02-28T15:15:41;102936.03;;;18.05;43.44
77263;BME280;66373;52.334;4.806;2023-02-28T15:18:16;103018.22;;;18.52;43.23
77263;BME280;66373;52.334;4.806;2023-02-28T15:20:49;103019.06;;;18.51;43.33
77263;BME280;66373;52.334;4.806;2023-02-28T15:23:18;102934.22;;;18.01;43.21
77263;BME280;66373;52.334;4.806;2023-02-28T15:25:51;102916.78;;;17.90;43.53
77263;BME280;66373;52.334;4.806;2023-02-28T15:28:23;103020.75;;;18.46;43.47
77263;BME280;66373;52.334;4.806;2023-02-28T15:30:54;102909.72;;;17.83;43.60
77263;BME280;66373;52.334;4.806;2023-02-28T15:33:27;102900.84;;;17.69;43.55
77263;BME280;66373;52.334;4.806;2023-02-28T15:36:10;102932.25;;;17.81;43.57
77263;BME280;66373;52.334;4.806;2023-02-28T15:38:42;102932.25;;;17.81;43.84
77263;BME280;66373;52.334;4.806;2023-02-28T15:41:23;102945.38;;;17.89;43.61
77263;BME280;66373;52.334;4.806;2023-02-28T15:44:16;102973.25;;;17.97;43.69
77263;BME280;66373;52.334;4.806;2023-02-28T15:46:54;103031.88;;;18.33;43.86
77263;BME280;66373;52.334;4.806;2023-02-28T15:49:24;103003.06;;;18.18;43.63
77263;BME280;66373;52.334;4.806;2023-02-28T15:51:53;102893.63;;;17.50;43.99
77263;BME280;66373;52.334;4.806;2023-02-28T15:54:24;102918.22;;;17.70;43.78
77263;BME280;66373;52.334;4.806;2023-02-28T15:56:57;102885.75;;;17.45;43.82
77263;BME280;66373;52.334;4.806;2023-02-28T15:59:27;102895.41;;;17.54;43.77
77263;BME280;66373;52.334;4.806;2023-02-28T16:02:04;102974.97;;;17.97;43.94
77263;BME280;66373;52.334;4.806;2023-02-28T16:07:44;103005.56;;;18.10;44.08
77263;BME280;66373;52.334;4.806;2023-02-28T16:10:40;102926.84;;;17.65;44.03
77263;BME280;66373;52.334;4.806;2023-02-28T16:13:18;103012.63;;;18.19;43.81
77263;BME280;66373;52.334;4.806;2023-02-28T16:15:46;102947.88;;;17.81;44.09
77263;BME280;66373;52.334;4.806;2023-02-28T16:18:19;102930.34;;;17.68;44.10
77263;BME280;66373;52.334;4.806;2023-02-28T16:20:49;102975.81;;;17.94;44.02
77263;BME280;66373;52.334;4.806;2023-02-28T16:23:19;102935.59;;;17.73;44.03
77263;BME280;66373;52.334;4.806;2023-02-28T16:25:46;102977.50;;;17.89;43.91
77263;BME280;66373;52.334;4.806;2023-02-28T16:28:22;102945.94;;;17.68;43.66
77263;BME280;66373;52.334;4.806;2023-02-28T16:30:54;102979.16;;;17.84;43.99
77263;BME280;66373;52.334;4.806;2023-02-28T16:33:23;103019.44;;;18.11;44.04
77263;BME280;66373;52.334;4.806;2023-02-28T16:35:54;103031.56;;;18.09;43.72
77263;BME280;66373;52.334;4.806;2023-02-28T16:38:31;103028.94;;;18.06;43.87
77263;BME280;66373;52.334;4.806;2023-02-28T16:41:01;103041.94;;;18.06;43.71
77263;BME280;66373;52.334;4.806;2023-02-28T16:43:28;102993.88;;;17.82;43.78
77263;BME280;66373;52.334;4.806;2023-02-28T16:46:01;102950.00;;;17.49;43.89
77263;BME280;66373;52.334;4.806;2023-02-28T16:48:34;102946.50;;;17.47;43.73
77263;BME280;66373;52.334;4.806;2023-02-28T16:51:04;102971.00;;;17.61;43.64
77263;BME280;66373;52.334;4.806;2023-02-28T16:53:37;102961.25;;;17.48;43.54
77263;BME280;66373;52.334;4.806;2023-02-28T16:56:14;103047.91;;;17.97;43.76
77263;BME280;66373;52.334;4.806;2023-02-28T16:58:43;102940.19;;;17.32;43.95
77263;BME280;66373;52.334;4.806;2023-02-28T17:01:15;103057.38;;;17.93;43.94